EDDB/SXF METAR and TAF weather

Enter ICAO airport designator
Station Type Date Time Source
EDDB METAR 2020/02/20 22:50 UTC NOAA

EDDB 202250Z 20013KT 9999 -RA BKN037 07/03 Q1008 NOSIG


Station Type Date Time Source
EDDB Decoded METAR 2020/02/20 22:50 UTC NOAA

Berlin-Schoenefeld, Germany (EDDB) 52-23N 013-31E 50M
Feb 20, 2020 - 05:50 PM EST / 2020.02.20 2250 UTC
Wind: from the SSW (200 degrees) at 15 MPH (13 KT):0
Visibility: greater than 7 mile(s):0
Sky conditions: mostly cloudy
Weather: light rain
Temperature: 44 F (7 C)
Dew Point: 37 F (3 C)
Relative Humidity: 75%
Pressure (altimeter): 29.77 in. Hg (1008 hPa)
ob: EDDB 202250Z 20013KT 9999 -RA BKN037 07/03 Q1008 NOSIG
cycle: 23

Station Type Date Time Source
EDDB TAF 2020/02/20 18:35 UTC NOAA

TAF
AMD EDDB 201830Z 2018/2118 19012KT 9999 FEW040
BECMG 2022/2101 21015G25KT RA
BECMG 2101/2103 28020G30KT NSW
TEMPO 2101/2105 28030G45KT 3500 SHRAGS BKN014CB
BECMG 2113/2116 24012KT

Example: see airport list